Aviation Digital Data Service (ADDS)

Output produced by METARs form (1840 UTC 25 March 2019)
found at http://www.aviationweather.gov/metar/data/
 
Forecast for: KCYS (CHEYENNE , WY, US)
Text: KCYS 251738Z 2518/2618 29024G36KT P6SM SKC
Forecast period: 1800 to 2200 UTC 25 March 2019
Forecast type: FROM: standard forecast or significant change
Winds: from the WNW (290 degrees) at 28 MPH (24 knots; 12.3 m/s)
gusting to 41 MPH (36 knots; 18.5 m/s)
Visibility: 6 or more miles 10+ km)
Clouds: clear skies
Weather: no significant weather forecast for this period
Text: FM252200 29014KT P6SM SKC
Forecast period: 2200 UTC 25 March 2019 to 0200 UTC 26 March 2019
Forecast type: FROM: standard forecast or significant change
Winds: from the WNW (290 degrees) at 16 MPH (14 knots; 7.2 m/s)
Visibility: 6 or more miles 10+ km)
Clouds: clear skies
Weather: no significant weather forecast for this period
Text: FM260200 28008KT P6SM SKC
Forecast period: 0200 to 1800 UTC 26 March 2019
Forecast type: FROM: standard forecast or significant change
Winds: from the W (280 degrees) at 9 MPH (8 knots; 4.1 m/s)
Visibility: 6 or more miles 10+ km)
Clouds: clear skies
Weather: no significant weather forecast for this period